sensor_id;sensor_type;location;lat;lon;timestamp;pressure;altitude;pressure_sealevel;temperature;humidity
53340;BME280;46212;50.258;19.062;2023-03-04T00:01:33;98594.38;;;-0.41;92.40
53340;BME280;46212;50.258;19.062;2023-03-04T00:03:58;98578.88;;;-0.30;92.10
53340;BME280;46212;50.258;19.062;2023-03-04T00:06:24;98576.56;;;-0.39;91.86
53340;BME280;46212;50.258;19.062;2023-03-04T00:08:49;98573.44;;;-0.34;92.00
53340;BME280;46212;50.258;19.062;2023-03-04T00:11:15;98577.69;;;-0.40;92.04
53340;BME280;46212;50.258;19.062;2023-03-04T00:13:40;98566.03;;;-0.47;92.59
53340;BME280;46212;50.258;19.062;2023-03-04T00:16:06;98554.06;;;-0.39;92.37
53340;BME280;46212;50.258;19.062;2023-03-04T00:18:32;98573.13;;;-0.11;91.82
53340;BME280;46212;50.258;19.062;2023-03-04T00:20:57;98576.63;;;0.04;91.22
53340;BME280;46212;50.258;19.062;2023-03-04T00:23:22;98567.66;;;-0.32;92.17
53340;BME280;46212;50.258;19.062;2023-03-04T00:25:48;98550.59;;;-0.36;91.84
53340;BME280;46212;50.258;19.062;2023-03-04T00:28:13;98556.38;;;-0.38;92.65
53340;BME280;46212;50.258;19.062;2023-03-04T00:30:38;98552.16;;;-0.14;92.38
53340;BME280;46212;50.258;19.062;2023-03-04T00:33:04;98572.72;;;-0.13;91.63
53340;BME280;46212;50.258;19.062;2023-03-04T00:35:29;98545.19;;;-0.12;91.04
53340;BME280;46212;50.258;19.062;2023-03-04T00:37:55;98552.16;;;-0.18;91.37
53340;BME280;46212;50.258;19.062;2023-03-04T00:40:20;98543.25;;;-0.18;91.21
53340;BME280;46212;50.258;19.062;2023-03-04T00:42:46;98527.69;;;-0.42;91.62
53340;BME280;46212;50.258;19.062;2023-03-04T00:45:11;98547.13;;;-0.26;92.17
53340;BME280;46212;50.258;19.062;2023-03-04T00:47:36;98528.06;;;-0.44;92.36
53340;BME280;46212;50.258;19.062;2023-03-04T00:50:02;98542.47;;;-0.33;92.71
53340;BME280;46212;50.258;19.062;2023-03-04T00:52:28;98536.22;;;-0.40;93.06
53340;BME280;46212;50.258;19.062;2023-03-04T00:54:53;98533.16;;;-0.21;92.87
53340;BME280;46212;50.258;19.062;2023-03-04T00:57:19;98525.81;;;-0.17;92.00
53340;BME280;46212;50.258;19.062;2023-03-04T00:59:44;98510.69;;;-0.15;92.02
53340;BME280;46212;50.258;19.062;2023-03-04T01:02:10;98515.69;;;-0.34;92.18
53340;BME280;46212;50.258;19.062;2023-03-04T01:04:36;98491.66;;;-0.43;92.31
53340;BME280;46212;50.258;19.062;2023-03-04T01:07:02;98494.78;;;-0.06;92.22
53340;BME280;46212;50.258;19.062;2023-03-04T01:09:27;98478.50;;;-0.16;91.31
53340;BME280;46212;50.258;19.062;2023-03-04T01:11:52;98462.97;;;-0.40;92.30
53340;BME280;46212;50.258;19.062;2023-03-04T01:14:18;98483.16;;;-0.20;92.64
53340;BME280;46212;50.258;19.062;2023-03-04T01:16:43;98459.88;;;-0.46;92.51
53340;BME280;46212;50.258;19.062;2023-03-04T01:19:09;98473.84;;;-0.33;93.33
53340;BME280;46212;50.258;19.062;2023-03-04T01:21:35;98461.44;;;-0.27;92.42
53340;BME280;46212;50.258;19.062;2023-03-04T01:24:00;98466.47;;;-0.15;92.73
53340;BME280;46212;50.258;19.062;2023-03-04T01:26:25;98449.41;;;-0.16;91.88
53340;BME280;46212;50.258;19.062;2023-03-04T01:28:51;98445.53;;;-0.54;92.47
53340;BME280;46212;50.258;19.062;2023-03-04T01:31:16;98454.09;;;-0.44;93.40
53340;BME280;46212;50.258;19.062;2023-03-04T01:33:42;98455.25;;;-0.38;93.13
53340;BME280;46212;50.258;19.062;2023-03-04T01:36:07;98468.03;;;-0.28;92.59
53340;BME280;46212;50.258;19.062;2023-03-04T01:38:32;98450.16;;;-0.50;93.21
53340;BME280;46212;50.258;19.062;2023-03-04T01:40:58;98455.25;;;-0.14;92.73
53340;BME280;46212;50.258;19.062;2023-03-04T01:43:26;98456.03;;;-0.17;92.00
53340;BME280;46212;50.258;19.062;2023-03-04T01:45:53;98438.56;;;-0.33;91.82
53340;BME280;46212;50.258;19.062;2023-03-04T01:48:36;98430.81;;;-0.17;91.57
53340;BME280;46212;50.258;19.062;2023-03-04T01:51:04;98446.34;;;-0.35;91.85
53340;BME280;46212;50.258;19.062;2023-03-04T01:53:31;98436.63;;;-0.40;92.49
53340;BME280;46212;50.258;19.062;2023-03-04T01:56:02;98435.84;;;0.13;91.48
53340;BME280;46212;50.258;19.062;2023-03-04T01:58:35;98440.53;;;-0.16;90.71
53340;BME280;46212;50.258;19.062;2023-03-04T02:01:00;98439.72;;;-0.06;91.70
53340;BME280;46212;50.258;19.062;2023-03-04T02:03:26;98435.88;;;-0.19;90.74
53340;BME280;46212;50.258;19.062;2023-03-04T02:05:52;98418.41;;;-0.39;91.58
53340;BME280;46212;50.258;19.062;2023-03-04T02:08:20;98416.88;;;-0.26;91.69
53340;BME280;46212;50.258;19.062;2023-03-04T02:10:46;98423.81;;;-0.25;90.89
53340;BME280;46212;50.258;19.062;2023-03-04T02:13:13;98423.06;;;-0.15;90.72
53340;BME280;46212;50.258;19.062;2023-03-04T02:15:39;98423.84;;;-0.15;90.20
53340;BME280;46212;50.258;19.062;2023-03-04T02:18:17;98404.47;;;-0.41;90.93
53340;BME280;46212;50.258;19.062;2023-03-04T02:28:39;98395.13;;;-0.05;89.53
53340;BME280;46212;50.258;19.062;2023-03-04T02:31:04;98401.34;;;-0.01;89.09
53340;BME280;46212;50.258;19.062;2023-03-04T02:33:30;98383.56;;;-0.48;89.96
53340;BME280;46212;50.258;19.062;2023-03-04T02:35:57;98400.56;;;-0.40;91.03
53340;BME280;46212;50.258;19.062;2023-03-04T02:38:23;98381.97;;;-0.35;91.21
53340;BME280;46212;50.258;19.062;2023-03-04T02:40:50;98368.81;;;-0.29;90.96
53340;BME280;46212;50.258;19.062;2023-03-04T02:43:18;98376.94;;;-0.29;91.22
53340;BME280;46212;50.258;19.062;2023-03-04T02:45:46;98376.94;;;-0.43;91.34
53340;BME280;46212;50.258;19.062;2023-03-04T02:48:13;98374.97;;;-0.18;90.93
53340;BME280;46212;50.258;19.062;2023-03-04T02:50:43;98359.47;;;-0.14;89.96
53340;BME280;46212;50.258;19.062;2023-03-04T02:53:10;98350.22;;;-0.48;90.87
53340;BME280;46212;50.258;19.062;2023-03-04T02:55:36;98368.41;;;-0.31;91.08
53340;BME280;46212;50.258;19.062;2023-03-04T02:58:02;98339.34;;;-0.34;90.57
53340;BME280;46212;50.258;19.062;2023-03-04T03:00:27;98362.19;;;-0.04;90.12
53340;BME280;46212;50.258;19.062;2023-03-04T03:02:53;98352.50;;;-0.12;90.48
53340;BME280;46212;50.258;19.062;2023-03-04T03:05:22;98345.56;;;-0.51;90.77
53340;BME280;46212;50.258;19.062;2023-03-04T03:07:48;98358.69;;;-0.11;91.14
53340;BME280;46212;50.258;19.062;2023-03-04T03:10:14;98360.25;;;-0.31;90.98
53340;BME280;46212;50.258;19.062;2023-03-04T03:12:39;98360.25;;;-0.24;91.30
53340;BME280;46212;50.258;19.062;2023-03-04T03:15:06;98361.44;;;-0.29;91.00
53340;BME280;46212;50.258;19.062;2023-03-04T03:17:32;98352.16;;;-0.49;92.08
53340;BME280;46212;50.258;19.062;2023-03-04T03:19:57;98372.66;;;-0.37;92.23
53340;BME280;46212;50.258;19.062;2023-03-04T03:22:23;98357.59;;;-0.38;91.51
53340;BME280;46212;50.258;19.062;2023-03-04T03:24:48;98350.97;;;-0.34;91.54
53340;BME280;46212;50.258;19.062;2023-03-04T03:27:14;98359.84;;;-0.05;91.12
53340;BME280;46212;50.258;19.062;2023-03-04T03:29:39;98357.94;;;-0.40;91.62
53340;BME280;46212;50.258;19.062;2023-03-04T03:32:05;98354.84;;;-0.63;92.16
53340;BME280;46212;50.258;19.062;2023-03-04T03:34:30;98344.00;;;-0.49;92.09
53340;BME280;46212;50.258;19.062;2023-03-04T03:36:55;98367.66;;;-0.42;91.47
53340;BME280;46212;50.258;19.062;2023-03-04T03:39:21;98332.00;;;-0.59;92.10
53340;BME280;46212;50.258;19.062;2023-03-04T03:41:46;98355.25;;;-0.26;91.45
53340;BME280;46212;50.258;19.062;2023-03-04T03:44:12;98356.00;;;-0.25;91.35
53340;BME280;46212;50.258;19.062;2023-03-04T03:46:37;98359.88;;;-0.44;91.28
53340;BME280;46212;50.258;19.062;2023-03-04T03:49:03;98363.41;;;-0.54;92.11
53340;BME280;46212;50.258;19.062;2023-03-04T03:51:28;98367.28;;;-0.51;92.19
53340;BME280;46212;50.258;19.062;2023-03-04T03:53:53;98327.75;;;-0.74;92.61
53340;BME280;46212;50.258;19.062;2023-03-04T03:56:19;98351.78;;;-0.51;92.40
53340;BME280;46212;50.258;19.062;2023-03-04T03:58:44;98361.06;;;-0.84;93.07
53340;BME280;46212;50.258;19.062;2023-03-04T04:01:10;98361.06;;;-0.66;92.73
53340;BME280;46212;50.258;19.062;2023-03-04T04:03:35;98337.44;;;-0.83;92.32
53340;BME280;46212;50.258;19.062;2023-03-04T04:06:02;98350.59;;;-0.92;92.91
53340;BME280;46212;50.258;19.062;2023-03-04T04:08:27;98366.84;;;-0.82;93.28
53340;BME280;46212;50.258;19.062;2023-03-04T04:10:53;98361.44;;;-0.89;93.82
53340;BME280;46212;50.258;19.062;2023-03-04T04:13:18;98365.72;;;-0.67;93.76
53340;BME280;46212;50.258;19.062;2023-03-04T04:15:44;98353.69;;;-0.69;93.62
53340;BME280;46212;50.258;19.062;2023-03-04T04:18:09;98361.81;;;-0.94;94.30
53340;BME280;46212;50.258;19.062;2023-03-04T04:20:35;98354.84;;;-1.05;93.98
53340;BME280;46212;50.258;19.062;2023-03-04T04:23:01;98358.34;;;-0.84;94.17
53340;BME280;46212;50.258;19.062;2023-03-04T04:25:27;98355.63;;;-0.66;93.87
53340;BME280;46212;50.258;19.062;2023-03-04T04:27:52;98357.19;;;-0.72;93.87
53340;BME280;46212;50.258;19.062;2023-03-04T04:30:18;98346.34;;;-0.58;93.61
53340;BME280;46212;50.258;19.062;2023-03-04T04:32:43;98345.19;;;-0.61;93.31
53340;BME280;46212;50.258;19.062;2023-03-04T04:35:09;98339.34;;;-0.66;92.92
53340;BME280;46212;50.258;19.062;2023-03-04T04:37:34;98353.31;;;-0.61;92.78
53340;BME280;46212;50.258;19.062;2023-03-04T04:40:00;98331.63;;;-0.89;93.04
53340;BME280;46212;50.258;19.062;2023-03-04T04:42:25;98342.84;;;-0.87;93.92
53340;BME280;46212;50.258;19.062;2023-03-04T04:44:51;98340.53;;;-0.85;93.95
53340;BME280;46212;50.258;19.062;2023-03-04T04:47:17;98342.84;;;-0.66;92.96
53340;BME280;46212;50.258;19.062;2023-03-04T04:49:42;98342.09;;;-0.41;92.54
53340;BME280;46212;50.258;19.062;2023-03-04T04:52:08;98351.00;;;-0.80;92.33
53340;BME280;46212;50.258;19.062;2023-03-04T04:54:34;98328.91;;;-0.82;92.46
53340;BME280;46212;50.258;19.062;2023-03-04T04:56:59;98343.22;;;-0.53;91.87
53340;BME280;46212;50.258;19.062;2023-03-04T04:59:24;98343.63;;;-0.72;91.78
53340;BME280;46212;50.258;19.062;2023-03-04T05:01:50;98341.31;;;-0.74;92.25
53340;BME280;46212;50.258;19.062;2023-03-04T05:04:15;98335.09;;;-0.88;92.21
53340;BME280;46212;50.258;19.062;2023-03-04T05:06:41;98337.03;;;-0.71;91.51
53340;BME280;46212;50.258;19.062;2023-03-04T05:09:06;98328.13;;;-0.75;91.45
53340;BME280;46212;50.258;19.062;2023-03-04T05:11:32;98314.19;;;-0.74;90.89
53340;BME280;46212;50.258;19.062;2023-03-04T05:13:58;98332.41;;;-0.64;90.23
53340;BME280;46212;50.258;19.062;2023-03-04T05:16:23;98299.09;;;-0.71;89.30
53340;BME280;46212;50.258;19.062;2023-03-04T05:18:48;98330.06;;;-0.72;90.03
53340;BME280;46212;50.258;19.062;2023-03-04T05:21:14;98330.06;;;-0.65;90.65
53340;BME280;46212;50.258;19.062;2023-03-04T05:23:41;98333.16;;;-0.56;89.95
53340;BME280;46212;50.258;19.062;2023-03-04T05:26:09;98324.25;;;-0.85;89.41
53340;BME280;46212;50.258;19.062;2023-03-04T05:28:37;98315.72;;;-0.69;89.44
53340;BME280;46212;50.258;19.062;2023-03-04T05:31:02;98331.59;;;-0.46;89.25
53340;BME280;46212;50.258;19.062;2023-03-04T05:33:28;98319.59;;;-0.63;89.09
53340;BME280;46212;50.258;19.062;2023-03-04T05:35:53;98319.59;;;-0.52;88.34
53340;BME280;46212;50.258;19.062;2023-03-04T05:38:20;98299.09;;;-0.78;89.14
53340;BME280;46212;50.258;19.062;2023-03-04T05:40:46;98294.44;;;-0.85;89.63
53340;BME280;46212;50.258;19.062;2023-03-04T05:43:12;98317.66;;;-0.66;89.58
53340;BME280;46212;50.258;19.062;2023-03-04T05:45:39;98290.94;;;-0.85;90.19
53340;BME280;46212;50.258;19.062;2023-03-04T05:48:05;98296.38;;;-0.96;90.65
53340;BME280;46212;50.258;19.062;2023-03-04T05:50:31;98331.97;;;-1.01;91.91
53340;BME280;46212;50.258;19.062;2023-03-04T05:52:57;98320.38;;;-0.70;90.83
53340;BME280;46212;50.258;19.062;2023-03-04T05:55:23;98311.50;;;-0.74;90.52
53340;BME280;46212;50.258;19.062;2023-03-04T05:57:48;98317.28;;;-0.89;90.51
53340;BME280;46212;50.258;19.062;2023-03-04T06:00:14;98324.66;;;-0.69;90.60
53340;BME280;46212;50.258;19.062;2023-03-04T06:02:41;98292.09;;;-0.51;89.38
53340;BME280;46212;50.258;19.062;2023-03-04T06:05:07;98311.09;;;-0.51;88.38
53340;BME280;46212;50.258;19.062;2023-03-04T06:07:33;98289.78;;;-0.60;88.03
53340;BME280;46212;50.258;19.062;2023-03-04T06:09:59;98290.56;;;-0.70;88.00
53340;BME280;46212;50.258;19.062;2023-03-04T06:12:25;98300.25;;;-0.51;88.68
53340;BME280;46212;50.258;19.062;2023-03-04T06:14:50;98294.81;;;-0.76;88.83
53340;BME280;46212;50.258;19.062;2023-03-04T06:17:15;98302.16;;;-1.04;89.63
53340;BME280;46212;50.258;19.062;2023-03-04T06:19:41;98288.25;;;-0.89;90.22
53340;BME280;46212;50.258;19.062;2023-03-04T06:22:07;98288.25;;;-0.68;90.13
53340;BME280;46212;50.258;19.062;2023-03-04T06:24:34;98294.41;;;-0.39;88.83
53340;BME280;46212;50.258;19.062;2023-03-04T06:27:00;98310.69;;;-0.60;88.21
53340;BME280;46212;50.258;19.062;2023-03-04T06:29:25;98306.03;;;-0.63;88.63
53340;BME280;46212;50.258;19.062;2023-03-04T06:31:51;98298.72;;;-0.73;88.67
53340;BME280;46212;50.258;19.062;2023-03-04T06:34:16;98285.13;;;-0.63;87.58
53340;BME280;46212;50.258;19.062;2023-03-04T06:36:42;98309.91;;;-0.43;87.56
53340;BME280;46212;50.258;19.062;2023-03-04T06:39:07;98305.66;;;-0.62;88.51
53340;BME280;46212;50.258;19.062;2023-03-04T06:41:33;98302.56;;;-0.85;89.01
53340;BME280;46212;50.258;19.062;2023-03-04T06:43:59;98320.38;;;-0.56;89.39
53340;BME280;46212;50.258;19.062;2023-03-04T06:46:25;98325.81;;;-0.77;89.07
53340;BME280;46212;50.258;19.062;2023-03-04T06:48:50;98327.34;;;-0.40;87.86
53340;BME280;46212;50.258;19.062;2023-03-04T06:51:16;98324.63;;;-0.76;88.13
53340;BME280;46212;50.258;19.062;2023-03-04T06:53:41;98331.25;;;-0.73;87.99
53340;BME280;46212;50.258;19.062;2023-03-04T06:56:08;98338.59;;;-0.52;87.71
53340;BME280;46212;50.258;19.062;2023-03-04T06:58:34;98327.38;;;-0.55;86.90
53340;BME280;46212;50.258;19.062;2023-03-04T07:01:29;98343.59;;;-0.30;86.01
53340;BME280;46212;50.258;19.062;2023-03-04T07:03:55;98342.88;;;-0.48;85.90
53340;BME280;46212;50.258;19.062;2023-03-04T07:06:24;98343.63;;;-0.40;86.02
53340;BME280;46212;50.258;19.062;2023-03-04T07:08:50;98344.38;;;-0.43;86.05
53340;BME280;46212;50.258;19.062;2023-03-04T07:11:16;98343.22;;;-0.32;85.82
53340;BME280;46212;50.258;19.062;2023-03-04T07:13:42;98343.59;;;-0.33;85.97
53340;BME280;46212;50.258;19.062;2023-03-04T07:16:11;98344.31;;;0.03;84.93
53340;BME280;46212;50.258;19.062;2023-03-04T07:18:37;98333.13;;;-0.28;84.53
53340;BME280;46212;50.258;19.062;2023-03-04T07:21:04;98336.63;;;-0.17;84.29
53340;BME280;46212;50.258;19.062;2023-03-04T07:23:30;98335.09;;;-0.35;84.65
53340;BME280;46212;50.258;19.062;2023-03-04T07:25:55;98339.72;;;-0.22;84.29
53340;BME280;46212;50.258;19.062;2023-03-04T07:28:21;98350.19;;;-0.34;84.67
53340;BME280;46212;50.258;19.062;2023-03-04T07:30:47;98350.19;;;-0.38;84.86
53340;BME280;46212;50.258;19.062;2023-03-04T07:33:14;98347.06;;;-0.15;83.88
53340;BME280;46212;50.258;19.062;2023-03-04T07:35:39;98347.47;;;-0.17;83.66
53340;BME280;46212;50.258;19.062;2023-03-04T07:38:05;98342.41;;;-0.22;83.36
53340;BME280;46212;50.258;19.062;2023-03-04T07:40:31;98352.53;;;-0.22;83.59
53340;BME280;46212;50.258;19.062;2023-03-04T07:42:56;98333.13;;;-0.24;83.12
53340;BME280;46212;50.258;19.062;2023-03-04T07:45:23;98332.31;;;-0.07;82.95
53340;BME280;46212;50.258;19.062;2023-03-04T07:47:49;98352.13;;;-0.10;83.22
53340;BME280;46212;50.258;19.062;2023-03-04T07:50:15;98339.25;;;0.12;82.50
53340;BME280;46212;50.258;19.062;2023-03-04T07:52:42;98350.78;;;0.40;81.47
53340;BME280;46212;50.258;19.062;2023-03-04T07:55:10;98347.78;;;0.07;81.38
53340;BME280;46212;50.258;19.062;2023-03-04T07:57:39;98349.66;;;0.31;81.68
53340;BME280;46212;50.258;19.062;2023-03-04T08:00:06;98359.38;;;0.28;80.94
53340;BME280;46212;50.258;19.062;2023-03-04T08:02:32;98331.81;;;0.26;80.70
53340;BME280;46212;50.258;19.062;2023-03-04T08:04:57;98342.75;;;0.05;81.17
53340;BME280;46212;50.258;19.062;2023-03-04T08:07:23;98344.69;;;0.05;80.68
53340;BME280;46212;50.258;19.062;2023-03-04T08:09:48;98340.84;;;-0.02;80.85
53340;BME280;46212;50.258;19.062;2023-03-04T08:12:14;98356.34;;;-0.13;81.41
53340;BME280;46212;50.258;19.062;2023-03-04T08:14:39;98344.69;;;0.08;80.28
53340;BME280;46212;50.258;19.062;2023-03-04T08:17:05;98341.63;;;-0.12;79.84
53340;BME280;46212;50.258;19.062;2023-03-04T08:19:30;98371.06;;;0.04;80.22
53340;BME280;46212;50.258;19.062;2023-03-04T08:21:56;98354.78;;;0.04;79.55
53340;BME280;46212;50.258;19.062;2023-03-04T08:24:21;98362.91;;;0.18;79.42
53340;BME280;46212;50.258;19.062;2023-03-04T08:26:48;98367.53;;;0.21;79.02
53340;BME280;46212;50.258;19.062;2023-03-04T08:29:17;98371.81;;;0.19;79.28
53340;BME280;46212;50.258;19.062;2023-03-04T08:31:42;98374.91;;;0.17;78.94
53340;BME280;46212;50.258;19.062;2023-03-04T08:34:11;98343.19;;;-0.04;79.36
53340;BME280;46212;50.258;19.062;2023-03-04T08:36:37;98360.47;;;0.41;78.78
53340;BME280;46212;50.258;19.062;2023-03-04T08:39:04;98363.97;;;0.38;78.29
53340;BME280;46212;50.258;19.062;2023-03-04T08:41:30;98358.59;;;0.28;79.18
53340;BME280;46212;50.258;19.062;2023-03-04T08:43:55;98352.78;;;0.26;78.99
53340;BME280;46212;50.258;19.062;2023-03-04T08:46:21;98354.03;;;0.00;79.40
53340;BME280;46212;50.258;19.062;2023-03-04T08:48:46;98356.63;;;0.32;78.79
53340;BME280;46212;50.258;19.062;2023-03-04T08:51:14;98369.00;;;0.50;78.20
53340;BME280;46212;50.258;19.062;2023-03-04T08:53:41;98343.13;;;0.14;78.40
53340;BME280;46212;50.258;19.062;2023-03-04T08:56:08;98338.44;;;0.25;79.02
53340;BME280;46212;50.258;19.062;2023-03-04T08:58:34;98362.03;;;0.42;78.12
53340;BME280;46212;50.258;19.062;2023-03-04T09:01:00;98352.78;;;0.26;79.22
53340;BME280;46212;50.258;19.062;2023-03-04T09:03:26;98350.34;;;0.49;78.45
53340;BME280;46212;50.258;19.062;2023-03-04T09:05:52;98336.88;;;0.28;78.59
53340;BME280;46212;50.258;19.062;2023-03-04T09:08:17;98351.94;;;0.39;79.48
53340;BME280;46212;50.258;19.062;2023-03-04T09:10:45;98344.94;;;0.45;79.61
53340;BME280;46212;50.258;19.062;2023-03-04T09:13:11;98338.22;;;0.68;78.27
53340;BME280;46212;50.258;19.062;2023-03-04T09:15:43;98351.06;;;0.64;77.76
53340;BME280;46212;50.258;19.062;2023-03-04T09:18:09;98354.16;;;0.73;78.19
53340;BME280;46212;50.258;19.062;2023-03-04T09:20:34;98325.75;;;0.77;77.67
53340;BME280;46212;50.258;19.062;2023-03-04T09:23:00;98354.84;;;0.80;77.70
53340;BME280;46212;50.258;19.062;2023-03-04T09:25:25;98349.19;;;0.50;77.82
53340;BME280;46212;50.258;19.062;2023-03-04T09:27:50;98337.59;;;0.39;78.73
53340;BME280;46212;50.258;19.062;2023-03-04T09:30:16;98351.13;;;0.53;79.23
53340;BME280;46212;50.258;19.062;2023-03-04T09:32:42;98346.50;;;0.46;79.00
53340;BME280;46212;50.258;19.062;2023-03-04T09:35:07;98351.53;;;0.44;78.90
53340;BME280;46212;50.258;19.062;2023-03-04T09:37:34;98359.72;;;0.37;78.98
53340;BME280;46212;50.258;19.062;2023-03-04T09:40:00;98345.41;;;0.19;79.57
53340;BME280;46212;50.258;19.062;2023-03-04T09:42:37;98330.63;;;0.38;80.76
53340;BME280;46212;50.258;19.062;2023-03-04T09:45:06;98362.31;;;0.66;79.99
53340;BME280;46212;50.258;19.062;2023-03-04T09:47:33;98346.06;;;0.55;78.95
53340;BME280;46212;50.258;19.062;2023-03-04T09:50:06;98334.84;;;0.46;79.19
53340;BME280;46212;50.258;19.062;2023-03-04T09:55:26;98342.50;;;0.72;78.10
53340;BME280;46212;50.258;19.062;2023-03-04T10:00:41;98349.50;;;0.66;78.79
53340;BME280;46212;50.258;19.062;2023-03-04T10:06:12;98350.78;;;0.47;79.32
53340;BME280;46212;50.258;19.062;2023-03-04T10:09:42;98329.84;;;0.41;79.51
53340;BME280;46212;50.258;19.062;2023-03-04T10:16:51;98335.94;;;0.63;79.92
53340;BME280;46212;50.258;19.062;2023-03-04T10:19:34;98322.75;;;0.61;79.70
53340;BME280;46212;50.258;19.062;2023-03-04T10:22:15;98331.31;;;0.60;80.28
53340;BME280;46212;50.258;19.062;2023-03-04T10:24:43;98331.31;;;0.60;80.11
53340;BME280;46212;50.258;19.062;2023-03-04T10:27:13;98304.34;;;0.86;79.56
53340;BME280;46212;50.258;19.062;2023-03-04T10:29:40;98301.69;;;0.79;79.95
53340;BME280;46212;50.258;19.062;2023-03-04T10:32:11;98304.06;;;0.67;80.54
53340;BME280;46212;50.258;19.062;2023-03-04T10:34:38;98301.41;;;0.63;80.54
53340;BME280;46212;50.258;19.062;2023-03-04T10:37:05;98304.00;;;0.77;80.05
53340;BME280;46212;50.258;19.062;2023-03-04T10:39:34;98312.50;;;0.86;79.66
53340;BME280;46212;50.258;19.062;2023-03-04T10:42:06;98309.34;;;0.95;79.87
53340;BME280;46212;50.258;19.062;2023-03-04T10:44:53;98298.22;;;0.72;81.01
53340;BME280;46212;50.258;19.062;2023-03-04T10:47:22;98295.22;;;0.56;81.04
53340;BME280;46212;50.258;19.062;2023-03-04T10:49:57;98274.00;;;0.33;81.57
53340;BME280;46212;50.258;19.062;2023-03-04T10:52:29;98287.00;;;0.70;81.28
53340;BME280;46212;50.258;19.062;2023-03-04T10:54:57;98280.88;;;0.48;82.04
53340;BME280;46212;50.258;19.062;2023-03-04T10:57:34;98279.25;;;0.65;81.85
53340;BME280;46212;50.258;19.062;2023-03-04T11:00:02;98282.25;;;0.81;81.61
53340;BME280;46212;50.258;19.062;2023-03-04T11:02:30;98278.47;;;0.61;81.75
53340;BME280;46212;50.258;19.062;2023-03-04T11:07:44;98283.19;;;0.57;81.91
53340;BME280;46212;50.258;19.062;2023-03-04T11:10:19;98266.88;;;0.57;82.82
53340;BME280;46212;50.258;19.062;2023-03-04T11:15:23;98279.28;;;0.54;83.55
53340;BME280;46212;50.258;19.062;2023-03-04T11:17:54;98273.94;;;0.47;84.36
53340;BME280;46212;50.258;19.062;2023-03-04T11:20:33;98256.75;;;0.61;83.93
53340;BME280;46212;50.258;19.062;2023-03-04T11:23:05;98266.19;;;0.42;85.18
53340;BME280;46212;50.258;19.062;2023-03-04T11:25:54;98269.31;;;0.40;85.00
53340;BME280;46212;50.258;19.062;2023-03-04T11:28:30;98265.69;;;0.61;85.21
53340;BME280;46212;50.258;19.062;2023-03-04T11:31:13;98246.97;;;0.74;83.62
53340;BME280;46212;50.258;19.062;2023-03-04T11:36:28;98250.44;;;0.74;84.58
53340;BME280;46212;50.258;19.062;2023-03-04T11:38:57;98252.13;;;0.54;84.79
53340;BME280;46212;50.258;19.062;2023-03-04T11:41:31;98262.78;;;0.86;84.09
53340;BME280;46212;50.258;19.062;2023-03-04T11:43:58;98228.41;;;0.62;85.01
53340;BME280;46212;50.258;19.062;2023-03-04T11:46:43;98239.22;;;0.72;84.92
53340;BME280;46212;50.258;19.062;2023-03-04T12:02:39;98233.19;;;0.47;84.60
53340;BME280;46212;50.258;19.062;2023-03-04T12:10:59;98218.66;;;0.68;83.67
53340;BME280;46212;50.258;19.062;2023-03-04T12:13:51;98219.56;;;0.98;83.35
53340;BME280;46212;50.258;19.062;2023-03-04T12:30:32;98208.31;;;1.00;83.10
53340;BME280;46212;50.258;19.062;2023-03-04T12:33:26;98212.72;;;1.28;82.10
53340;BME280;46212;50.258;19.062;2023-03-04T12:44:14;98212.31;;;1.29;81.46
53340;BME280;46212;50.258;19.062;2023-03-04T12:49:32;98193.69;;;1.28;81.44
53340;BME280;46212;50.258;19.062;2023-03-04T12:52:43;98196.66;;;1.40;81.42
53340;BME280;46212;50.258;19.062;2023-03-04T12:55:20;98201.75;;;1.72;80.33
53340;BME280;46212;50.258;19.062;2023-03-04T12:57:49;98171.88;;;1.31;80.14
53340;BME280;46212;50.258;19.062;2023-03-04T13:19:48;98175.03;;;1.64;80.28
53340;BME280;46212;50.258;19.062;2023-03-04T13:24:53;98166.50;;;1.92;79.42
53340;BME280;46212;50.258;19.062;2023-03-04T13:27:45;98159.28;;;2.08;78.66
53340;BME280;46212;50.258;19.062;2023-03-04T13:32:57;98153.75;;;1.85;79.48
53340;BME280;46212;50.258;19.062;2023-03-04T13:43:47;98140.19;;;2.12;78.16
53340;BME280;46212;50.258;19.062;2023-03-04T13:51:23;98158.00;;;1.90;79.51
53340;BME280;46212;50.258;19.062;2023-03-04T13:56:41;98149.22;;;1.75;79.51
53340;BME280;46212;50.258;19.062;2023-03-04T14:04:16;98147.38;;;1.99;79.25
53340;BME280;46212;50.258;19.062;2023-03-04T14:06:44;98145.81;;;1.98;79.17
53340;BME280;46212;50.258;19.062;2023-03-04T14:09:15;98147.53;;;1.85;80.14
53340;BME280;46212;50.258;19.062;2023-03-04T14:11:41;98149.34;;;1.95;79.86
53340;BME280;46212;50.258;19.062;2023-03-04T14:14:11;98148.09;;;2.03;79.51
53340;BME280;46212;50.258;19.062;2023-03-04T14:16:44;98154.00;;;2.25;79.37
53340;BME280;46212;50.258;19.062;2023-03-04T14:19:21;98127.16;;;2.23;78.81
53340;BME280;46212;50.258;19.062;2023-03-04T14:21:48;98135.38;;;2.20;78.93
53340;BME280;46212;50.258;19.062;2023-03-04T14:24:16;98141.41;;;2.07;79.52
53340;BME280;46212;50.258;19.062;2023-03-04T14:26:42;98134.50;;;2.26;79.42
53340;BME280;46212;50.258;19.062;2023-03-04T14:29:26;98130.09;;;2.36;78.53
53340;BME280;46212;50.258;19.062;2023-03-04T14:31:52;98135.13;;;2.37;78.86
53340;BME280;46212;50.258;19.062;2023-03-04T14:34:29;98143.16;;;2.21;79.32
53340;BME280;46212;50.258;19.062;2023-03-04T14:36:56;98136.72;;;2.35;78.70
53340;BME280;46212;50.258;19.062;2023-03-04T14:39:28;98132.19;;;2.51;78.66
53340;BME280;46212;50.258;19.062;2023-03-04T14:41:56;98127.19;;;2.69;77.82
53340;BME280;46212;50.258;19.062;2023-03-04T14:44:35;98133.06;;;2.45;77.84
53340;BME280;46212;50.258;19.062;2023-03-04T14:49:52;98136.75;;;2.81;77.18
53340;BME280;46212;50.258;19.062;2023-03-04T14:57:37;98133.25;;;2.57;77.02
53340;BME280;46212;50.258;19.062;2023-03-04T15:02:55;98120.28;;;2.65;76.35
53340;BME280;46212;50.258;19.062;2023-03-04T15:05:32;98112.31;;;2.51;75.21
53340;BME280;46212;50.258;19.062;2023-03-04T15:08:00;98129.75;;;2.34;75.37
53340;BME280;46212;50.258;19.062;2023-03-04T15:10:31;98121.72;;;2.23;75.59